sensor_id;sensor_type;location;lat;lon;timestamp;P1;durP1;ratioP1;P2;durP2;ratioP2
15968;SDS011;8085;53.472;9.794;2023-08-01T00:00:15;3.63;;;2.35;;
15968;SDS011;8085;53.472;9.794;2023-08-01T00:02:42;2.42;;;2.22;;
15968;SDS011;8085;53.472;9.794;2023-08-01T00:05:10;2.33;;;2.13;;
15968;SDS011;8085;53.472;9.794;2023-08-01T00:07:36;4.75;;;2.47;;
15968;SDS011;8085;53.472;9.794;2023-08-01T00:10:04;6.88;;;2.35;;
15968;SDS011;8085;53.472;9.794;2023-08-01T00:12:31;2.75;;;2.13;;
15968;SDS011;8085;53.472;9.794;2023-08-01T00:14:58;3.08;;;2.30;;
15968;SDS011;8085;53.472;9.794;2023-08-01T00:17:26;1.90;;;1.65;;
15968;SDS011;8085;53.472;9.794;2023-08-01T00:19:53;1.95;;;1.85;;
15968;SDS011;8085;53.472;9.794;2023-08-01T00:22:20;3.08;;;1.73;;
15968;SDS011;8085;53.472;9.794;2023-08-01T00:24:47;2.92;;;1.80;;
15968;SDS011;8085;53.472;9.794;2023-08-01T00:27:14;2.45;;;1.67;;
15968;SDS011;8085;53.472;9.794;2023-08-01T00:29:41;2.15;;;1.90;;
15968;SDS011;8085;53.472;9.794;2023-08-01T00:32:08;2.15;;;1.95;;
15968;SDS011;8085;53.472;9.794;2023-08-01T00:34:36;3.63;;;1.92;;
15968;SDS011;8085;53.472;9.794;2023-08-01T00:37:03;2.95;;;1.90;;
15968;SDS011;8085;53.472;9.794;2023-08-01T00:39:30;2.47;;;1.90;;
15968;SDS011;8085;53.472;9.794;2023-08-01T00:41:58;2.20;;;1.90;;
15968;SDS011;8085;53.472;9.794;2023-08-01T00:44:25;2.63;;;2.20;;
15968;SDS011;8085;53.472;9.794;2023-08-01T00:46:52;3.72;;;2.20;;
15968;SDS011;8085;53.472;9.794;2023-08-01T00:49:18;3.70;;;2.58;;
15968;SDS011;8085;53.472;9.794;2023-08-01T00:51:47;3.08;;;2.47;;
15968;SDS011;8085;53.472;9.794;2023-08-01T00:54:14;2.33;;;2.13;;
15968;SDS011;8085;53.472;9.794;2023-08-01T00:56:42;2.78;;;2.47;;
15968;SDS011;8085;53.472;9.794;2023-08-01T00:59:09;3.05;;;2.70;;
15968;SDS011;8085;53.472;9.794;2023-08-01T01:01:38;6.85;;;2.80;;
15968;SDS011;8085;53.472;9.794;2023-08-01T01:04:04;3.15;;;2.85;;
15968;SDS011;8085;53.472;9.794;2023-08-01T01:06:32;5.07;;;2.95;;
15968;SDS011;8085;53.472;9.794;2023-08-01T01:09:02;4.10;;;3.08;;
15968;SDS011;8085;53.472;9.794;2023-08-01T01:11:40;3.88;;;2.22;;
15968;SDS011;8085;53.472;9.794;2023-08-01T01:14:06;4.03;;;3.63;;
15968;SDS011;8085;53.472;9.794;2023-08-01T01:16:33;3.58;;;2.72;;
15968;SDS011;8085;53.472;9.794;2023-08-01T01:19:00;6.82;;;3.65;;
15968;SDS011;8085;53.472;9.794;2023-08-01T01:21:29;8.57;;;3.90;;
15968;SDS011;8085;53.472;9.794;2023-08-01T01:23:56;5.50;;;3.80;;
15968;SDS011;8085;53.472;9.794;2023-08-01T01:26:24;7.75;;;4.25;;
15968;SDS011;8085;53.472;9.794;2023-08-01T01:28:52;5.20;;;3.85;;
15968;SDS011;8085;53.472;9.794;2023-08-01T01:31:19;4.75;;;4.00;;
15968;SDS011;8085;53.472;9.794;2023-08-01T01:33:46;10.23;;;4.72;;
15968;SDS011;8085;53.472;9.794;2023-08-01T01:36:13;9.23;;;4.85;;
15968;SDS011;8085;53.472;9.794;2023-08-01T01:38:41;5.70;;;4.68;;
15968;SDS011;8085;53.472;9.794;2023-08-01T01:41:08;6.60;;;4.45;;
15968;SDS011;8085;53.472;9.794;2023-08-01T01:43:36;6.50;;;3.78;;
15968;SDS011;8085;53.472;9.794;2023-08-01T01:46:03;7.75;;;5.10;;
15968;SDS011;8085;53.472;9.794;2023-08-01T01:48:30;9.55;;;5.43;;
15968;SDS011;8085;53.472;9.794;2023-08-01T01:50:57;9.55;;;5.18;;
15968;SDS011;8085;53.472;9.794;2023-08-01T01:53:24;7.22;;;5.03;;
15968;SDS011;8085;53.472;9.794;2023-08-01T01:55:52;7.95;;;4.82;;
15968;SDS011;8085;53.472;9.794;2023-08-01T01:58:19;8.43;;;5.43;;
15968;SDS011;8085;53.472;9.794;2023-08-01T02:00:46;9.52;;;5.20;;
15968;SDS011;8085;53.472;9.794;2023-08-01T02:03:12;8.25;;;5.65;;
15968;SDS011;8085;53.472;9.794;2023-08-01T02:05:39;9.50;;;6.18;;
15968;SDS011;8085;53.472;9.794;2023-08-01T02:08:06;8.50;;;5.60;;
15968;SDS011;8085;53.472;9.794;2023-08-01T02:10:33;11.20;;;5.97;;
15968;SDS011;8085;53.472;9.794;2023-08-01T02:13:01;9.07;;;6.18;;
15968;SDS011;8085;53.472;9.794;2023-08-01T02:15:28;9.02;;;5.95;;
15968;SDS011;8085;53.472;9.794;2023-08-01T02:17:55;9.25;;;6.57;;
15968;SDS011;8085;53.472;9.794;2023-08-01T02:20:22;9.60;;;6.50;;
15968;SDS011;8085;53.472;9.794;2023-08-01T02:22:49;15.20;;;7.68;;
15968;SDS011;8085;53.472;9.794;2023-08-01T02:25:16;11.57;;;6.57;;
15968;SDS011;8085;53.472;9.794;2023-08-01T02:27:43;12.43;;;6.57;;
15968;SDS011;8085;53.472;9.794;2023-08-01T02:30:11;12.75;;;6.93;;
15968;SDS011;8085;53.472;9.794;2023-08-01T02:32:38;11.30;;;6.90;;
15968;SDS011;8085;53.472;9.794;2023-08-01T02:35:05;16.05;;;6.95;;
15968;SDS011;8085;53.472;9.794;2023-08-01T02:37:33;12.35;;;7.50;;
15968;SDS011;8085;53.472;9.794;2023-08-01T02:40:00;13.32;;;7.80;;
15968;SDS011;8085;53.472;9.794;2023-08-01T02:42:32;13.65;;;8.30;;
15968;SDS011;8085;53.472;9.794;2023-08-01T02:44:59;12.30;;;8.00;;
15968;SDS011;8085;53.472;9.794;2023-08-01T02:47:27;14.80;;;7.50;;
15968;SDS011;8085;53.472;9.794;2023-08-01T02:49:54;15.65;;;7.60;;
15968;SDS011;8085;53.472;9.794;2023-08-01T02:52:21;17.83;;;8.95;;
15968;SDS011;8085;53.472;9.794;2023-08-01T02:54:47;12.77;;;8.13;;
15968;SDS011;8085;53.472;9.794;2023-08-01T02:57:14;11.65;;;7.63;;
15968;SDS011;8085;53.472;9.794;2023-08-01T02:59:41;12.05;;;8.32;;
15968;SDS011;8085;53.472;9.794;2023-08-01T03:02:08;17.55;;;7.82;;
15968;SDS011;8085;53.472;9.794;2023-08-01T03:04:36;10.82;;;7.90;;
15968;SDS011;8085;53.472;9.794;2023-08-01T03:07:03;16.00;;;8.40;;
15968;SDS011;8085;53.472;9.794;2023-08-01T03:09:30;14.48;;;8.70;;
15968;SDS011;8085;53.472;9.794;2023-08-01T03:11:58;18.40;;;8.57;;
15968;SDS011;8085;53.472;9.794;2023-08-01T03:14:25;14.38;;;8.52;;
15968;SDS011;8085;53.472;9.794;2023-08-01T03:16:52;14.68;;;8.75;;
15968;SDS011;8085;53.472;9.794;2023-08-01T03:19:19;14.00;;;8.00;;
15968;SDS011;8085;53.472;9.794;2023-08-01T03:21:47;14.85;;;8.45;;
15968;SDS011;8085;53.472;9.794;2023-08-01T03:24:14;10.50;;;7.43;;
15968;SDS011;8085;53.472;9.794;2023-08-01T03:26:41;17.45;;;8.38;;
15968;SDS011;8085;53.472;9.794;2023-08-01T03:29:07;13.23;;;7.68;;
15968;SDS011;8085;53.472;9.794;2023-08-01T03:31:34;12.85;;;7.72;;
15968;SDS011;8085;53.472;9.794;2023-08-01T03:34:01;15.18;;;7.95;;
15968;SDS011;8085;53.472;9.794;2023-08-01T03:36:28;14.75;;;7.75;;
15968;SDS011;8085;53.472;9.794;2023-08-01T03:38:57;14.45;;;8.73;;
15968;SDS011;8085;53.472;9.794;2023-08-01T03:41:24;14.13;;;7.97;;
15968;SDS011;8085;53.472;9.794;2023-08-01T03:43:50;18.70;;;8.77;;
15968;SDS011;8085;53.472;9.794;2023-08-01T03:46:17;14.07;;;7.88;;
15968;SDS011;8085;53.472;9.794;2023-08-01T03:48:44;15.10;;;8.75;;
15968;SDS011;8085;53.472;9.794;2023-08-01T03:51:11;12.35;;;7.72;;
15968;SDS011;8085;53.472;9.794;2023-08-01T03:53:40;15.38;;;7.47;;
15968;SDS011;8085;53.472;9.794;2023-08-01T03:56:08;14.38;;;8.05;;
15968;SDS011;8085;53.472;9.794;2023-08-01T03:58:35;15.40;;;7.88;;
15968;SDS011;8085;53.472;9.794;2023-08-01T04:01:02;12.93;;;7.65;;
15968;SDS011;8085;53.472;9.794;2023-08-01T04:03:31;15.35;;;7.88;;
15968;SDS011;8085;53.472;9.794;2023-08-01T04:05:58;13.18;;;7.53;;
15968;SDS011;8085;53.472;9.794;2023-08-01T04:08:25;15.10;;;8.00;;
15968;SDS011;8085;53.472;9.794;2023-08-01T04:10:52;13.70;;;7.75;;
15968;SDS011;8085;53.472;9.794;2023-08-01T04:13:20;12.70;;;7.80;;
15968;SDS011;8085;53.472;9.794;2023-08-01T04:15:47;12.98;;;8.07;;
15968;SDS011;8085;53.472;9.794;2023-08-01T04:18:14;13.98;;;7.75;;
15968;SDS011;8085;53.472;9.794;2023-08-01T04:20:41;14.05;;;7.55;;
15968;SDS011;8085;53.472;9.794;2023-08-01T04:23:08;11.48;;;8.00;;
15968;SDS011;8085;53.472;9.794;2023-08-01T04:25:34;17.10;;;8.13;;
15968;SDS011;8085;53.472;9.794;2023-08-01T04:28:01;14.68;;;7.97;;
15968;SDS011;8085;53.472;9.794;2023-08-01T04:30:29;12.60;;;7.95;;
15968;SDS011;8085;53.472;9.794;2023-08-01T04:32:58;17.55;;;8.02;;
15968;SDS011;8085;53.472;9.794;2023-08-01T04:35:25;18.98;;;8.85;;
15968;SDS011;8085;53.472;9.794;2023-08-01T04:37:52;11.63;;;7.90;;
15968;SDS011;8085;53.472;9.794;2023-08-01T04:40:18;16.13;;;8.45;;
15968;SDS011;8085;53.472;9.794;2023-08-01T04:42:45;17.90;;;8.93;;
15968;SDS011;8085;53.472;9.794;2023-08-01T04:45:12;13.30;;;8.52;;
15968;SDS011;8085;53.472;9.794;2023-08-01T04:47:40;14.95;;;8.40;;
15968;SDS011;8085;53.472;9.794;2023-08-01T04:50:07;14.43;;;8.30;;
15968;SDS011;8085;53.472;9.794;2023-08-01T04:52:34;14.25;;;8.50;;
15968;SDS011;8085;53.472;9.794;2023-08-01T04:55:01;17.00;;;8.68;;
15968;SDS011;8085;53.472;9.794;2023-08-01T04:57:28;21.73;;;9.82;;
15968;SDS011;8085;53.472;9.794;2023-08-01T04:59:55;14.68;;;7.93;;
15968;SDS011;8085;53.472;9.794;2023-08-01T05:02:22;15.93;;;8.85;;
15968;SDS011;8085;53.472;9.794;2023-08-01T05:04:51;13.98;;;8.50;;
15968;SDS011;8085;53.472;9.794;2023-08-01T05:07:18;14.48;;;7.97;;
15968;SDS011;8085;53.472;9.794;2023-08-01T05:09:44;14.70;;;7.65;;
15968;SDS011;8085;53.472;9.794;2023-08-01T05:12:11;15.50;;;8.10;;
15968;SDS011;8085;53.472;9.794;2023-08-01T05:14:38;11.82;;;7.50;;
15968;SDS011;8085;53.472;9.794;2023-08-01T05:17:05;14.00;;;7.32;;
15968;SDS011;8085;53.472;9.794;2023-08-01T05:19:32;14.90;;;6.45;;
15968;SDS011;8085;53.472;9.794;2023-08-01T05:22:00;12.80;;;6.88;;
15968;SDS011;8085;53.472;9.794;2023-08-01T05:24:27;11.63;;;6.43;;
15968;SDS011;8085;53.472;9.794;2023-08-01T05:26:54;12.15;;;6.82;;
15968;SDS011;8085;53.472;9.794;2023-08-01T05:29:21;14.43;;;6.75;;
15968;SDS011;8085;53.472;9.794;2023-08-01T05:31:47;18.25;;;6.88;;
15968;SDS011;8085;53.472;9.794;2023-08-01T05:34:14;10.73;;;5.65;;
15968;SDS011;8085;53.472;9.794;2023-08-01T05:36:41;14.90;;;6.57;;
15968;SDS011;8085;53.472;9.794;2023-08-01T05:39:09;13.38;;;6.18;;
15968;SDS011;8085;53.472;9.794;2023-08-01T05:41:36;10.60;;;6.15;;
15968;SDS011;8085;53.472;9.794;2023-08-01T05:44:03;9.57;;;5.68;;
15968;SDS011;8085;53.472;9.794;2023-08-01T05:46:30;15.57;;;6.68;;
15968;SDS011;8085;53.472;9.794;2023-08-01T05:48:57;13.30;;;6.55;;
15968;SDS011;8085;53.472;9.794;2023-08-01T05:51:24;11.38;;;6.20;;
15968;SDS011;8085;53.472;9.794;2023-08-01T05:53:51;15.40;;;6.88;;
15968;SDS011;8085;53.472;9.794;2023-08-01T05:56:19;14.13;;;6.53;;
15968;SDS011;8085;53.472;9.794;2023-08-01T05:58:46;9.73;;;5.45;;
15968;SDS011;8085;53.472;9.794;2023-08-01T06:01:13;14.90;;;6.80;;
15968;SDS011;8085;53.472;9.794;2023-08-01T06:03:40;12.75;;;6.85;;
15968;SDS011;8085;53.472;9.794;2023-08-01T06:06:07;17.58;;;6.65;;
15968;SDS011;8085;53.472;9.794;2023-08-01T06:08:34;13.55;;;6.60;;
15968;SDS011;8085;53.472;9.794;2023-08-01T06:11:01;11.18;;;6.18;;
15968;SDS011;8085;53.472;9.794;2023-08-01T06:13:29;11.00;;;5.50;;
15968;SDS011;8085;53.472;9.794;2023-08-01T06:15:56;9.25;;;5.45;;
15968;SDS011;8085;53.472;9.794;2023-08-01T06:18:23;7.65;;;4.97;;
15968;SDS011;8085;53.472;9.794;2023-08-01T06:20:50;8.73;;;4.47;;
15968;SDS011;8085;53.472;9.794;2023-08-01T06:23:17;9.80;;;4.30;;
15968;SDS011;8085;53.472;9.794;2023-08-01T06:25:44;6.75;;;3.70;;
15968;SDS011;8085;53.472;9.794;2023-08-01T06:28:10;8.70;;;3.42;;
15968;SDS011;8085;53.472;9.794;2023-08-01T06:30:39;4.82;;;3.22;;
15968;SDS011;8085;53.472;9.794;2023-08-01T06:33:05;6.60;;;3.13;;
15968;SDS011;8085;53.472;9.794;2023-08-01T06:35:32;5.40;;;2.47;;
15968;SDS011;8085;53.472;9.794;2023-08-01T06:37:59;4.75;;;3.03;;
15968;SDS011;8085;53.472;9.794;2023-08-01T06:40:26;7.38;;;3.03;;
15968;SDS011;8085;53.472;9.794;2023-08-01T06:42:53;8.88;;;3.00;;
15968;SDS011;8085;53.472;9.794;2023-08-01T06:45:19;5.82;;;2.95;;
15968;SDS011;8085;53.472;9.794;2023-08-01T06:47:48;6.10;;;2.97;;
15968;SDS011;8085;53.472;9.794;2023-08-01T06:50:15;11.35;;;3.20;;
15968;SDS011;8085;53.472;9.794;2023-08-01T06:52:42;4.78;;;2.78;;
15968;SDS011;8085;53.472;9.794;2023-08-01T06:55:08;4.82;;;2.70;;
15968;SDS011;8085;53.472;9.794;2023-08-01T06:57:35;6.18;;;3.38;;
15968;SDS011;8085;53.472;9.794;2023-08-01T07:00:02;7.47;;;3.10;;
15968;SDS011;8085;53.472;9.794;2023-08-01T07:02:29;7.70;;;3.38;;
15968;SDS011;8085;53.472;9.794;2023-08-01T07:04:58;6.22;;;2.83;;
15968;SDS011;8085;53.472;9.794;2023-08-01T07:07:25;7.05;;;3.53;;
15968;SDS011;8085;53.472;9.794;2023-08-01T07:09:51;7.85;;;3.15;;
15968;SDS011;8085;53.472;9.794;2023-08-01T07:12:18;10.82;;;3.50;;
15968;SDS011;8085;53.472;9.794;2023-08-01T07:14:44;8.32;;;3.83;;
15968;SDS011;8085;53.472;9.794;2023-08-01T07:17:11;9.65;;;3.45;;
15968;SDS011;8085;53.472;9.794;2023-08-01T07:19:38;5.97;;;3.47;;
15968;SDS011;8085;53.472;9.794;2023-08-01T07:22:07;7.25;;;3.17;;
15968;SDS011;8085;53.472;9.794;2023-08-01T07:24:34;6.22;;;3.83;;
15968;SDS011;8085;53.472;9.794;2023-08-01T07:27:00;7.47;;;4.15;;
15968;SDS011;8085;53.472;9.794;2023-08-01T07:29:27;4.88;;;3.50;;
15968;SDS011;8085;53.472;9.794;2023-08-01T07:31:54;5.75;;;3.20;;
15968;SDS011;8085;53.472;9.794;2023-08-01T07:34:21;9.27;;;4.10;;
15968;SDS011;8085;53.472;9.794;2023-08-01T07:36:48;7.47;;;3.67;;
15968;SDS011;8085;53.472;9.794;2023-08-01T07:39:16;6.38;;;3.83;;
15968;SDS011;8085;53.472;9.794;2023-08-01T07:41:43;8.80;;;4.00;;
15968;SDS011;8085;53.472;9.794;2023-08-01T07:44:10;8.88;;;3.58;;
15968;SDS011;8085;53.472;9.794;2023-08-01T07:46:37;8.27;;;3.03;;
15968;SDS011;8085;53.472;9.794;2023-08-01T07:49:04;6.15;;;2.90;;
15968;SDS011;8085;53.472;9.794;2023-08-01T07:51:31;6.53;;;2.50;;
15968;SDS011;8085;53.472;9.794;2023-08-01T07:53:59;6.03;;;3.22;;
15968;SDS011;8085;53.472;9.794;2023-08-01T07:56:27;6.22;;;3.03;;
15968;SDS011;8085;53.472;9.794;2023-08-01T07:58:54;9.00;;;2.72;;
15968;SDS011;8085;53.472;9.794;2023-08-01T08:01:21;6.10;;;3.03;;
15968;SDS011;8085;53.472;9.794;2023-08-01T08:03:48;6.72;;;2.88;;
15968;SDS011;8085;53.472;9.794;2023-08-01T08:06:15;7.55;;;3.50;;
15968;SDS011;8085;53.472;9.794;2023-08-01T08:08:42;6.93;;;2.88;;
15968;SDS011;8085;53.472;9.794;2023-08-01T08:11:09;9.95;;;3.90;;
15968;SDS011;8085;53.472;9.794;2023-08-01T08:13:37;8.13;;;3.63;;
15968;SDS011;8085;53.472;9.794;2023-08-01T08:16:04;8.48;;;3.92;;
15968;SDS011;8085;53.472;9.794;2023-08-01T08:18:31;7.90;;;4.53;;
15968;SDS011;8085;53.472;9.794;2023-08-01T08:20:58;5.63;;;3.63;;
15968;SDS011;8085;53.472;9.794;2023-08-01T08:23:25;10.70;;;4.85;;
15968;SDS011;8085;53.472;9.794;2023-08-01T08:25:52;8.93;;;4.53;;
15968;SDS011;8085;53.472;9.794;2023-08-01T08:28:27;11.32;;;4.75;;
15968;SDS011;8085;53.472;9.794;2023-08-01T08:30:57;9.02;;;4.70;;
15968;SDS011;8085;53.472;9.794;2023-08-01T08:33:24;9.23;;;5.55;;
15968;SDS011;8085;53.472;9.794;2023-08-01T08:35:51;12.60;;;4.80;;
15968;SDS011;8085;53.472;9.794;2023-08-01T08:38:18;7.70;;;4.53;;
15968;SDS011;8085;53.472;9.794;2023-08-01T08:40:48;8.60;;;4.57;;
15968;SDS011;8085;53.472;9.794;2023-08-01T08:43:23;6.40;;;3.88;;
15968;SDS011;8085;53.472;9.794;2023-08-01T08:45:49;5.05;;;2.80;;
15968;SDS011;8085;53.472;9.794;2023-08-01T08:48:20;6.93;;;2.63;;
15968;SDS011;8085;53.472;9.794;2023-08-01T08:50:48;5.70;;;2.55;;
15968;SDS011;8085;53.472;9.794;2023-08-01T08:53:16;3.50;;;3.08;;
15968;SDS011;8085;53.472;9.794;2023-08-01T08:55:45;6.50;;;2.50;;
15968;SDS011;8085;53.472;9.794;2023-08-01T08:58:12;4.20;;;2.22;;
15968;SDS011;8085;53.472;9.794;2023-08-01T09:00:39;7.30;;;2.30;;
15968;SDS011;8085;53.472;9.794;2023-08-01T09:03:06;3.85;;;2.63;;
15968;SDS011;8085;53.472;9.794;2023-08-01T09:05:35;3.53;;;2.45;;
15968;SDS011;8085;53.472;9.794;2023-08-01T09:08:07;6.30;;;2.70;;
15968;SDS011;8085;53.472;9.794;2023-08-01T09:10:45;5.05;;;2.92;;
15968;SDS011;8085;53.472;9.794;2023-08-01T09:13:12;5.38;;;2.92;;
15968;SDS011;8085;53.472;9.794;2023-08-01T09:15:39;3.17;;;2.78;;
15968;SDS011;8085;53.472;9.794;2023-08-01T09:18:08;3.85;;;3.00;;
15968;SDS011;8085;53.472;9.794;2023-08-01T09:20:44;5.78;;;2.95;;
15968;SDS011;8085;53.472;9.794;2023-08-01T09:23:12;5.40;;;3.00;;
15968;SDS011;8085;53.472;9.794;2023-08-01T09:25:40;3.80;;;3.08;;
15968;SDS011;8085;53.472;9.794;2023-08-01T09:28:17;7.25;;;2.78;;
15968;SDS011;8085;53.472;9.794;2023-08-01T09:30:45;7.38;;;3.03;;
15968;SDS011;8085;53.472;9.794;2023-08-01T09:33:13;6.88;;;2.80;;
15968;SDS011;8085;53.472;9.794;2023-08-01T09:35:40;3.83;;;2.72;;
15968;SDS011;8085;53.472;9.794;2023-08-01T09:38:10;3.00;;;2.30;;
15968;SDS011;8085;53.472;9.794;2023-08-01T09:40:39;4.78;;;2.35;;
15968;SDS011;8085;53.472;9.794;2023-08-01T09:43:07;3.50;;;1.85;;
15968;SDS011;8085;53.472;9.794;2023-08-01T09:45:34;8.48;;;2.17;;
15968;SDS011;8085;53.472;9.794;2023-08-01T09:48:01;3.13;;;1.98;;
15968;SDS011;8085;53.472;9.794;2023-08-01T09:50:28;3.88;;;2.05;;
15968;SDS011;8085;53.472;9.794;2023-08-01T09:52:55;3.50;;;1.70;;
15968;SDS011;8085;53.472;9.794;2023-08-01T09:55:25;3.40;;;1.60;;
15968;SDS011;8085;53.472;9.794;2023-08-01T09:57:53;3.35;;;1.55;;
15968;SDS011;8085;53.472;9.794;2023-08-01T10:00:23;2.35;;;1.42;;
15968;SDS011;8085;53.472;9.794;2023-08-01T10:02:51;3.13;;;1.40;;
15968;SDS011;8085;53.472;9.794;2023-08-01T10:05:19;1.73;;;1.20;;
15968;SDS011;8085;53.472;9.794;2023-08-01T10:07:47;3.85;;;1.33;;
15968;SDS011;8085;53.472;9.794;2023-08-01T10:10:17;4.90;;;1.58;;
15968;SDS011;8085;53.472;9.794;2023-08-01T10:12:46;3.72;;;1.40;;
15968;SDS011;8085;53.472;9.794;2023-08-01T10:15:14;2.63;;;0.93;;
15968;SDS011;8085;53.472;9.794;2023-08-01T10:17:41;3.20;;;1.40;;
15968;SDS011;8085;53.472;9.794;2023-08-01T10:20:09;2.55;;;1.27;;
15968;SDS011;8085;53.472;9.794;2023-08-01T10:22:38;2.63;;;1.40;;
15968;SDS011;8085;53.472;9.794;2023-08-01T10:25:06;2.53;;;1.10;;
15968;SDS011;8085;53.472;9.794;2023-08-01T10:27:35;1.98;;;1.10;;
15968;SDS011;8085;53.472;9.794;2023-08-01T10:30:04;1.67;;;1.00;;
15968;SDS011;8085;53.472;9.794;2023-08-01T10:32:33;1.48;;;0.90;;
15968;SDS011;8085;53.472;9.794;2023-08-01T10:35:00;3.60;;;1.10;;
15968;SDS011;8085;53.472;9.794;2023-08-01T10:37:38;2.53;;;1.30;;
15968;SDS011;8085;53.472;9.794;2023-08-01T10:40:06;2.25;;;1.10;;
15968;SDS011;8085;53.472;9.794;2023-08-01T10:42:37;2.92;;;1.17;;
15968;SDS011;8085;53.472;9.794;2023-08-01T10:45:07;1.55;;;1.00;;
15968;SDS011;8085;53.472;9.794;2023-08-01T10:47:45;1.17;;;0.60;;
15968;SDS011;8085;53.472;9.794;2023-08-01T10:50:13;3.17;;;0.80;;
15968;SDS011;8085;53.472;9.794;2023-08-01T10:52:40;4.63;;;0.60;;
15968;SDS011;8085;53.472;9.794;2023-08-01T10:55:08;1.35;;;0.90;;
15968;SDS011;8085;53.472;9.794;2023-08-01T10:57:36;1.98;;;0.90;;
15968;SDS011;8085;53.472;9.794;2023-08-01T11:00:05;1.23;;;0.73;;
15968;SDS011;8085;53.472;9.794;2023-08-01T11:02:35;1.05;;;0.60;;
15968;SDS011;8085;53.472;9.794;2023-08-01T11:05:03;2.55;;;0.57;;
15968;SDS011;8085;53.472;9.794;2023-08-01T11:07:31;0.77;;;0.60;;
15968;SDS011;8085;53.472;9.794;2023-08-01T11:10:07;2.92;;;0.60;;
15968;SDS011;8085;53.472;9.794;2023-08-01T11:12:38;1.25;;;0.40;;
15968;SDS011;8085;53.472;9.794;2023-08-01T11:15:08;2.33;;;0.73;;
15968;SDS011;8085;53.472;9.794;2023-08-01T11:17:37;2.40;;;0.52;;
15968;SDS011;8085;53.472;9.794;2023-08-01T11:20:05;1.77;;;0.50;;
15968;SDS011;8085;53.472;9.794;2023-08-01T11:22:33;1.33;;;0.43;;
15968;SDS011;8085;53.472;9.794;2023-08-01T11:25:00;2.08;;;0.70;;
15968;SDS011;8085;53.472;9.794;2023-08-01T11:27:27;1.55;;;0.90;;
15968;SDS011;8085;53.472;9.794;2023-08-01T11:29:55;6.35;;;0.75;;
15968;SDS011;8085;53.472;9.794;2023-08-01T11:32:32;1.55;;;0.82;;
15968;SDS011;8085;53.472;9.794;2023-08-01T11:34:59;0.50;;;0.50;;
15968;SDS011;8085;53.472;9.794;2023-08-01T11:37:26;1.13;;;0.63;;
15968;SDS011;8085;53.472;9.794;2023-08-01T11:39:53;0.85;;;0.52;;
15968;SDS011;8085;53.472;9.794;2023-08-01T11:42:21;0.50;;;0.50;;
15968;SDS011;8085;53.472;9.794;2023-08-01T11:44:48;0.82;;;0.60;;
15968;SDS011;8085;53.472;9.794;2023-08-01T11:47:15;1.02;;;0.90;;
15968;SDS011;8085;53.472;9.794;2023-08-01T11:49:46;1.58;;;0.77;;
15968;SDS011;8085;53.472;9.794;2023-08-01T11:54:58;2.45;;;1.20;;
15968;SDS011;8085;53.472;9.794;2023-08-01T11:57:25;1.92;;;0.98;;
15968;SDS011;8085;53.472;9.794;2023-08-01T11:59:53;2.15;;;1.00;;
15968;SDS011;8085;53.472;9.794;2023-08-01T12:02:22;4.05;;;0.90;;
15968;SDS011;8085;53.472;9.794;2023-08-01T12:04:51;1.15;;;1.00;;
15968;SDS011;8085;53.472;9.794;2023-08-01T12:07:19;1.60;;;0.90;;
15968;SDS011;8085;53.472;9.794;2023-08-01T12:09:54;1.50;;;0.80;;
15968;SDS011;8085;53.472;9.794;2023-08-01T12:12:22;2.75;;;0.82;;
15968;SDS011;8085;53.472;9.794;2023-08-01T12:14:48;2.10;;;1.05;;
15968;SDS011;8085;53.472;9.794;2023-08-01T12:17:15;2.50;;;0.90;;
15968;SDS011;8085;53.472;9.794;2023-08-01T12:19:42;2.78;;;0.70;;
15968;SDS011;8085;53.472;9.794;2023-08-01T12:22:10;2.03;;;0.73;;
15968;SDS011;8085;53.472;9.794;2023-08-01T12:24:37;2.17;;;0.63;;
15968;SDS011;8085;53.472;9.794;2023-08-01T12:27:05;2.67;;;1.00;;
15968;SDS011;8085;53.472;9.794;2023-08-01T12:29:32;1.17;;;0.90;;
15968;SDS011;8085;53.472;9.794;2023-08-01T12:31:59;2.17;;;0.65;;
15968;SDS011;8085;53.472;9.794;2023-08-01T12:34:26;2.05;;;0.80;;
15968;SDS011;8085;53.472;9.794;2023-08-01T12:36:54;1.90;;;0.73;;
15968;SDS011;8085;53.472;9.794;2023-08-01T12:39:23;1.45;;;1.10;;
15968;SDS011;8085;53.472;9.794;2023-08-01T12:41:51;2.03;;;1.10;;
15968;SDS011;8085;53.472;9.794;2023-08-01T12:44:18;1.63;;;1.08;;
15968;SDS011;8085;53.472;9.794;2023-08-01T12:46:45;3.67;;;1.90;;
15968;SDS011;8085;53.472;9.794;2023-08-01T12:49:11;2.38;;;1.88;;
15968;SDS011;8085;53.472;9.794;2023-08-01T12:51:38;4.45;;;1.90;;
15968;SDS011;8085;53.472;9.794;2023-08-01T12:54:05;3.17;;;1.92;;
15968;SDS011;8085;53.472;9.794;2023-08-01T12:56:33;3.85;;;1.75;;
15968;SDS011;8085;53.472;9.794;2023-08-01T12:59:00;3.50;;;1.42;;
15968;SDS011;8085;53.472;9.794;2023-08-01T13:01:27;2.65;;;1.42;;
15968;SDS011;8085;53.472;9.794;2023-08-01T13:03:54;3.58;;;1.30;;
15968;SDS011;8085;53.472;9.794;2023-08-01T13:06:20;1.55;;;1.38;;
15968;SDS011;8085;53.472;9.794;2023-08-01T13:08:47;2.35;;;1.40;;
15968;SDS011;8085;53.472;9.794;2023-08-01T13:11:14;2.65;;;1.48;;
15968;SDS011;8085;53.472;9.794;2023-08-01T13:13:43;1.67;;;1.00;;
15968;SDS011;8085;53.472;9.794;2023-08-01T13:16:11;1.42;;;0.93;;
15968;SDS011;8085;53.472;9.794;2023-08-01T13:18:39;2.08;;;1.20;;
15968;SDS011;8085;53.472;9.794;2023-08-01T13:21:08;3.13;;;1.00;;
15968;SDS011;8085;53.472;9.794;2023-08-01T13:23:36;1.25;;;1.13;;
15968;SDS011;8085;53.472;9.794;2023-08-01T13:26:03;3.33;;;1.40;;
15968;SDS011;8085;53.472;9.794;2023-08-01T13:28:30;1.55;;;0.90;;
15968;SDS011;8085;53.472;9.794;2023-08-01T13:30:58;1.35;;;0.82;;
15968;SDS011;8085;53.472;9.794;2023-08-01T13:33:25;3.20;;;1.13;;
15968;SDS011;8085;53.472;9.794;2023-08-01T13:35:52;3.13;;;0.80;;
15968;SDS011;8085;53.472;9.794;2023-08-01T13:38:19;1.25;;;0.70;;
15968;SDS011;8085;53.472;9.794;2023-08-01T13:40:46;1.00;;;0.55;;
15968;SDS011;8085;53.472;9.794;2023-08-01T13:43:13;2.58;;;0.50;;
15968;SDS011;8085;53.472;9.794;2023-08-01T13:45:40;2.25;;;0.90;;
15968;SDS011;8085;53.472;9.794;2023-08-01T13:48:09;1.55;;;0.40;;
15968;SDS011;8085;53.472;9.794;2023-08-01T13:50:35;0.98;;;0.40;;
15968;SDS011;8085;53.472;9.794;2023-08-01T13:53:02;5.32;;;0.73;;
15968;SDS011;8085;53.472;9.794;2023-08-01T13:55:31;0.50;;;0.50;;
15968;SDS011;8085;53.472;9.794;2023-08-01T13:57:58;1.83;;;0.63;;
15968;SDS011;8085;53.472;9.794;2023-08-01T14:00:25;0.85;;;0.50;;
15968;SDS011;8085;53.472;9.794;2023-08-01T14:02:53;1.27;;;0.70;;
15968;SDS011;8085;53.472;9.794;2023-08-01T14:05:23;2.17;;;0.50;;
15968;SDS011;8085;53.472;9.794;2023-08-01T14:07:50;1.70;;;0.50;;
15968;SDS011;8085;53.472;9.794;2023-08-01T14:10:17;1.52;;;0.80;;
15968;SDS011;8085;53.472;9.794;2023-08-01T14:12:44;2.00;;;0.70;;
15968;SDS011;8085;53.472;9.794;2023-08-01T14:15:11;2.63;;;0.80;;
15968;SDS011;8085;53.472;9.794;2023-08-01T14:17:38;1.60;;;0.70;;
15968;SDS011;8085;53.472;9.794;2023-08-01T14:20:06;0.98;;;0.68;;
15968;SDS011;8085;53.472;9.794;2023-08-01T14:22:35;1.33;;;0.70;;
15968;SDS011;8085;53.472;9.794;2023-08-01T14:25:03;2.63;;;0.50;;
15968;SDS011;8085;53.472;9.794;2023-08-01T14:27:30;1.50;;;0.57;;
15968;SDS011;8085;53.472;9.794;2023-08-01T14:29:57;2.25;;;0.90;;
15968;SDS011;8085;53.472;9.794;2023-08-01T14:32:25;1.25;;;0.90;;
15968;SDS011;8085;53.472;9.794;2023-08-01T14:34:51;0.70;;;0.70;;
15968;SDS011;8085;53.472;9.794;2023-08-01T14:37:18;1.80;;;0.73;;
15968;SDS011;8085;53.472;9.794;2023-08-01T14:39:50;2.70;;;1.15;;
15968;SDS011;8085;53.472;9.794;2023-08-01T14:42:17;1.65;;;0.80;;
15968;SDS011;8085;53.472;9.794;2023-08-01T14:44:44;2.15;;;1.00;;
15968;SDS011;8085;53.472;9.794;2023-08-01T14:47:10;2.25;;;0.60;;
15968;SDS011;8085;53.472;9.794;2023-08-01T14:49:37;3.05;;;0.93;;
15968;SDS011;8085;53.472;9.794;2023-08-01T14:52:05;1.25;;;0.73;;
15968;SDS011;8085;53.472;9.794;2023-08-01T14:54:33;2.50;;;0.88;;
15968;SDS011;8085;53.472;9.794;2023-08-01T14:57:02;2.03;;;0.70;;
15968;SDS011;8085;53.472;9.794;2023-08-01T14:59:29;2.50;;;0.80;;
15968;SDS011;8085;53.472;9.794;2023-08-01T15:01:56;3.13;;;0.90;;